Terminal Aerodrome Forecast
Issued by NWS

Home | Current Version | Previous Version | Graphics & Text | Print | Product List | Glossary On
Versions: 1 2 3 4 5 6 7 8 9 10 11 12 13 14 15 16 17 18 19 20 21 22 23 24
000
FTUS43 KGRB 151100 AAA
TAFATW
TAF AMD
KATW 151116Z 1511/1606 VRB02KT 1/4SM -DZ FG VV002
     FM151400 19004KT 1/2SM FG OVC004
     FM151600 18006KT 1SM BR OVC010
     FM151800 16008KT 4SM BR OVC015
      TEMPO 1520/1524 2SM -RA BR OVC013
     FM160000 13006KT 3SM -RA BR OVC011=

USA.gov is the U.S. government's official web portal to all federal, state and local government web resources and services.